Time;durP1;ratioP1;P1;durP2;ratioP2;P2;SDS_P1;SDS_P2;PMS_P1;PMS_P2;Temp;Humidity;BMP_temperature;BMP_pressure;BME280_temperature;BME280_humidity;BME280_pressure;Samples;Min_cycle;Max_cycle;Signal;HPM_P1;HPM_P2
2023/04/26 00:00:08;;;;;;;15.73;7.15;;;14.90;61.10;;;;;;4967737;28;20137;-78
2023/04/26 00:02:36;;;;;;;17.48;8.32;;;14.80;61.40;;;;;;4990161;28;20530;-78
2023/04/26 00:05:04;;;;;;;18.58;7.80;;;14.80;62.10;;;;;;4966722;28;20047;-78
2023/04/26 00:07:32;;;;;;;13.30;7.70;;;14.70;62.20;;;;;;4969815;28;20078;-78
2023/04/26 00:10:00;;;;;;;18.52;7.95;;;14.70;63.30;;;;;;4971116;28;20051;-78
2023/04/26 00:12:27;;;;;;;12.93;7.07;;;14.70;63.70;;;;;;4964663;28;20059;-75
2023/04/26 00:14:55;;;;;;;14.15;8.10;;;14.60;62.60;;;;;;4971987;28;20057;-78
2023/04/26 00:17:25;;;;;;;20.40;7.57;;;14.60;63.40;;;;;;4969787;28;20050;-78
2023/04/26 00:19:52;;;;;;;16.05;7.30;;;14.60;63.20;;;;;;4948716;28;20102;-78
2023/04/26 00:22:22;;;;;;;22.35;7.40;;;14.60;64.70;;;;;;4969548;28;20093;-78
2023/04/26 00:24:49;;;;;;;17.15;7.32;;;14.60;65.90;;;;;;4970755;28;20059;-77
2023/04/26 00:27:17;;;;;;;16.98;8.15;;;14.60;65.30;;;;;;4967270;28;20047;-77
2023/04/26 00:29:45;;;;;;;26.10;8.23;;;14.50;67.10;;;;;;4968446;28;20134;-77
2023/04/26 00:32:13;;;;;;;25.70;9.05;;;14.40;67.70;;;;;;4973191;28;20117;-77
2023/04/26 00:34:43;;;;;;;19.05;7.88;;;14.40;67.40;;;;;;4970924;28;20050;-77
2023/04/26 00:37:13;;;;;;;26.98;7.93;;;14.30;68.60;;;;;;4970347;28;20055;-76
2023/04/26 00:39:40;;;;;;;18.95;6.90;;;14.30;69.90;;;;;;4954989;28;20047;-78
2023/04/26 00:42:08;;;;;;;24.63;8.55;;;14.30;67.90;;;;;;4972466;28;20058;-78
2023/04/26 00:44:38;;;;;;;22.05;8.52;;;14.20;68.00;;;;;;4972382;28;20482;-78
2023/04/26 00:47:06;;;;;;;14.50;7.38;;;14.20;69.80;;;;;;4967230;28;20065;-78
2023/04/26 00:49:34;;;;;;;14.90;8.35;;;14.20;69.20;;;;;;4955977;28;20073;-78
2023/04/26 00:52:03;;;;;;;25.35;8.15;;;14.30;68.60;;;;;;4963772;28;20055;-78
2023/04/26 00:54:31;;;;;;;13.90;7.22;;;14.30;68.70;;;;;;4973756;28;20153;-77
2023/04/26 00:56:59;;;;;;;16.13;7.22;;;14.30;66.70;;;;;;4950720;28;20047;-77
2023/04/26 00:59:27;;;;;;;13.93;7.38;;;14.30;67.80;;;;;;4972626;28;20047;-76
2023/04/26 01:01:56;;;;;;;12.32;7.10;;;14.30;68.70;;;;;;4970943;28;20534;-78
2023/04/26 01:04:26;;;;;;;15.90;6.95;;;14.30;69.00;;;;;;4974091;28;20109;-78
2023/04/26 01:06:54;;;;;;;13.23;6.95;;;14.30;68.40;;;;;;4969469;28;20178;-77
2023/04/26 01:09:22;;;;;;;14.15;7.15;;;14.20;68.10;;;;;;4972795;28;20051;-78
2023/04/26 01:11:52;;;;;;;14.05;7.05;;;14.20;68.30;;;;;;4978102;28;20071;-77
2023/04/26 01:14:20;;;;;;;13.43;7.55;;;14.20;67.40;;;;;;4971855;28;20101;-78
2023/04/26 01:16:48;;;;;;;11.00;6.75;;;14.20;66.50;;;;;;4939811;28;20046;-78
2023/04/26 01:19:17;;;;;;;16.52;7.85;;;14.20;67.70;;;;;;4967476;28;20051;-77
2023/04/26 01:21:49;;;;;;;;;;;14.20;66.80;;;;;;4972579;28;20054;-77
2023/04/26 01:24:18;;;;;;;11.77;7.18;;;14.20;67.30;;;;;;4967769;28;19958;-77
2023/04/26 01:26:48;;;;;;;15.93;7.32;;;14.10;66.50;;;;;;4972844;28;20151;-77
2023/04/26 01:29:18;;;;;;;12.95;7.03;;;14.10;68.10;;;;;;4972188;28;20054;-86
2023/04/26 01:31:46;;;;;;;12.05;7.95;;;14.10;67.60;;;;;;4975088;28;20043;-87
2023/04/26 01:34:14;;;;;;;10.48;7.40;;;14.10;67.70;;;;;;4967963;28;20058;-86
2023/04/26 01:36:44;;;;;;;14.23;7.45;;;14.00;68.10;;;;;;4954958;28;20047;-84
2023/04/26 01:39:12;;;;;;;11.35;7.00;;;14.10;67.70;;;;;;4954583;28;20122;-84
2023/04/26 01:41:41;;;;;;;17.83;6.75;;;14.00;67.00;;;;;;4969420;28;20047;-84
2023/04/26 01:44:08;;;;;;;13.75;7.22;;;14.00;67.90;;;;;;4966673;28;20138;-84
2023/04/26 01:46:36;;;;;;;12.27;7.28;;;13.90;67.20;;;;;;4986428;28;20047;-84
2023/04/26 01:49:06;;;;;;;12.68;7.60;;;13.80;67.30;;;;;;4962956;28;20401;-85
2023/04/26 01:51:35;;;;;;;13.27;6.68;;;13.80;66.70;;;;;;4958636;28;20050;-86
2023/04/26 01:54:03;;;;;;;10.52;6.78;;;13.80;66.90;;;;;;4961991;28;20634;-86
2023/04/26 01:56:32;;;;;;;11.93;6.50;;;13.80;67.50;;;;;;4973745;28;20514;-87
2023/04/26 01:59:08;;;;;;;18.52;7.32;;;13.70;67.50;;;;;;4974186;28;20058;-87
2023/04/26 02:01:36;;;;;;;14.23;7.25;;;13.70;67.90;;;;;;4968761;28;20057;-87
2023/04/26 02:04:06;;;;;;;15.23;7.25;;;13.60;67.90;;;;;;4972763;28;20054;-85
2023/04/26 02:06:33;;;;;;;12.23;7.47;;;13.60;67.00;;;;;;4968011;28;20051;-78
2023/04/26 02:09:01;;;;;;;15.25;6.82;;;13.50;68.30;;;;;;4967279;28;20047;-79
2023/04/26 02:11:28;;;;;;;12.15;7.13;;;13.50;68.30;;;;;;4963884;28;20046;-78
2023/04/26 02:13:58;;;;;;;14.65;7.05;;;13.40;68.90;;;;;;4970678;28;20550;-78
2023/04/26 02:16:27;;;;;;;15.55;7.32;;;13.40;68.70;;;;;;4973347;28;20077;-85
2023/04/26 02:18:55;;;;;;;18.20;7.43;;;13.30;68.50;;;;;;4969639;28;20051;-84
2023/04/26 02:21:22;;;;;;;13.95;7.78;;;13.20;69.50;;;;;;4970898;28;20101;-84
2023/04/26 02:23:50;;;;;;;13.23;7.88;;;13.20;69.80;;;;;;4971080;28;20060;-84
2023/04/26 02:26:17;;;;;;;14.32;7.55;;;13.20;70.00;;;;;;4972649;28;20500;-83
2023/04/26 02:28:45;;;;;;;19.95;7.90;;;13.10;69.70;;;;;;4963721;28;20061;-86
2023/04/26 02:31:14;;;;;;;14.68;7.55;;;13.20;69.10;;;;;;4971201;28;20050;-84
2023/04/26 02:33:43;;;;;;;14.48;7.10;;;13.20;70.60;;;;;;4968810;28;20105;-82
2023/04/26 02:36:13;;;;;;;16.75;7.47;;;13.20;70.40;;;;;;4968176;28;20416;-82
2023/04/26 02:38:41;;;;;;;17.38;8.63;;;13.20;70.50;;;;;;4970197;28;20113;-89
2023/04/26 02:41:09;;;;;;;22.45;10.35;;;13.10;70.20;;;;;;4986064;28;20055;-85
2023/04/26 02:43:36;;;;;;;15.60;8.55;;;13.10;69.40;;;;;;4971719;28;20055;-89
2023/04/26 02:46:07;;;;;;;20.85;8.00;;;13.10;69.70;;;;;;4967671;28;20049;-89
2023/04/26 02:48:35;;;;;;;18.17;7.97;;;13.10;70.50;;;;;;4969557;28;20159;-88
2023/04/26 02:51:05;;;;;;;14.57;7.90;;;13.10;70.80;;;;;;4966389;28;20512;-86
2023/04/26 02:53:33;;;;;;;18.25;7.93;;;13.00;71.10;;;;;;4985511;28;20122;-87
2023/04/26 02:56:01;;;;;;;24.05;8.05;;;13.10;72.10;;;;;;4952499;28;20047;-89
2023/04/26 02:58:29;;;;;;;13.63;7.43;;;13.00;71.70;;;;;;4956572;28;20050;-86
2023/04/26 03:00:58;;;;;;;13.20;7.35;;;13.00;71.70;;;;;;4971649;28;20039;-89
2023/04/26 03:03:26;;;;;;;16.38;7.90;;;13.00;72.20;;;;;;4971416;28;20046;-89
2023/04/26 03:05:57;;;;;;;14.00;7.40;;;13.00;71.70;;;;;;4970727;28;20047;-87
2023/04/26 03:08:26;;;;;;;24.63;8.82;;;13.00;72.10;;;;;;4969614;28;20082;-84
2023/04/26 03:10:54;;;;;;;19.08;8.15;;;13.00;72.70;;;;;;4971035;28;20074;-87
2023/04/26 03:13:23;;;;;;;24.20;8.15;;;13.00;72.40;;;;;;4980920;28;20059;-88
2023/04/26 03:15:53;;;;;;;39.05;10.90;;;13.00;72.50;;;;;;4955050;28;20082;-86
2023/04/26 03:18:23;;;;;;;31.50;9.38;;;13.00;73.70;;;;;;4970681;28;20042;-84
2023/04/26 03:20:52;;;;;;;36.13;9.80;;;13.00;74.60;;;;;;4970028;28;20170;-88
2023/04/26 03:23:23;;;;;;;27.20;9.02;;;12.90;74.50;;;;;;4968883;28;20109;-86
2023/04/26 03:25:52;;;;;;;17.00;8.40;;;13.00;74.80;;;;;;4971007;28;20054;-86
2023/04/26 03:28:20;;;;;;;18.92;8.43;;;13.00;74.40;;;;;;4972421;28;20451;-87
2023/04/26 03:30:51;;;;;;;25.75;8.25;;;13.00;74.10;;;;;;4968837;28;20533;-86
2023/04/26 03:33:20;;;;;;;24.95;7.97;;;13.00;74.70;;;;;;4944090;28;20054;-86
2023/04/26 03:35:47;;;;;;;26.73;7.68;;;13.00;74.30;;;;;;4970023;28;20459;-77
2023/04/26 03:38:16;;;;;;;20.50;8.30;;;12.90;74.00;;;;;;4970002;28;20077;-77
2023/04/26 03:40:43;;;;;;;20.40;7.75;;;12.90;75.60;;;;;;4962661;28;20051;-77
2023/04/26 03:43:13;;;;;;;22.98;7.65;;;12.90;75.70;;;;;;4951406;28;20427;-77
2023/04/26 03:45:40;;;;;;;28.80;8.32;;;12.80;76.40;;;;;;4970117;28;20450;-76
2023/04/26 03:48:08;;;;;;;23.85;9.18;;;12.80;76.70;;;;;;4971709;28;20113;-77
2023/04/26 03:50:35;;;;;;;33.03;8.90;;;12.70;77.50;;;;;;4968301;28;20102;-77
2023/04/26 03:53:03;;;;;;;31.55;8.68;;;12.70;78.20;;;;;;4961402;28;20546;-77
2023/04/26 03:55:34;;;;;;;40.85;9.13;;;12.70;78.20;;;;;;4949461;28;20054;-77
2023/04/26 03:58:06;;;;;;;34.97;10.65;;;12.70;78.70;;;;;;4967262;28;20094;-77
2023/04/26 04:00:38;;;;;;;45.08;12.60;;;12.70;79.00;;;;;;4972959;28;20490;-77
2023/04/26 04:03:07;;;;;;;28.45;8.52;;;12.70;78.90;;;;;;4967928;28;20145;-78
2023/04/26 04:05:35;;;;;;;34.17;10.38;;;12.80;78.50;;;;;;4953931;28;20047;-76
2023/04/26 04:08:04;;;;;;;33.53;9.48;;;12.80;78.50;;;;;;4971367;28;20074;-76
2023/04/26 04:10:31;;;;;;;31.75;9.10;;;12.80;78.50;;;;;;4957435;28;20078;-77
2023/04/26 04:12:59;;;;;;;37.08;9.13;;;12.80;78.80;;;;;;4957521;28;20054;-80
2023/04/26 04:15:27;;;;;;;36.83;8.98;;;12.80;79.30;;;;;;4988088;28;20050;-81
2023/04/26 04:17:57;;;;;;;25.10;8.98;;;12.80;80.10;;;;;;4971766;28;20046;-81
2023/04/26 04:20:27;;;;;;;35.00;9.27;;;12.80;79.70;;;;;;4970238;28;20062;-88
2023/04/26 04:23:06;;;;;;;21.20;8.15;;;12.80;79.60;;;;;;4969715;28;20500;-80
2023/04/26 04:25:39;;;;;;;33.28;8.82;;;12.90;79.60;;;;;;4949591;28;20446;-80
2023/04/26 04:28:10;;;;;;;25.30;8.40;;;12.90;79.40;;;;;;4945465;28;20410;-89
2023/04/26 04:30:38;;;;;;;30.48;8.63;;;13.00;79.80;;;;;;4955907;28;20531;-89
2023/04/26 04:33:13;;;;;;;24.17;10.43;;;13.00;79.70;;;;;;4975197;28;20059;-80
2023/04/26 04:35:45;;;;;;;25.98;9.30;;;13.10;78.90;;;;;;4968414;28;20062;-79
2023/04/26 04:39:19;;;;;;;29.50;9.88;;;13.20;78.20;;;;;;4970850;28;20055;-79
2023/04/26 04:41:54;;;;;;;36.38;9.32;;;13.30;76.90;;;;;;4954664;28;20055;-88
2023/04/26 04:44:23;;;;;;;30.38;9.98;;;13.40;77.70;;;;;;4971481;28;20050;-76
2023/04/26 04:46:56;;;;;;;28.20;8.98;;;13.40;77.00;;;;;;4986337;28;20053;-83
2023/04/26 04:49:40;;;;;;;32.28;10.52;;;13.60;77.40;;;;;;4972685;28;20055;-88
2023/04/26 04:52:07;;;;;;;25.27;9.45;;;13.60;76.60;;;;;;4983630;28;20050;-87
2023/04/26 04:54:37;;;;;;;18.48;9.18;;;13.70;76.50;;;;;;4970148;28;20054;-87
2023/04/26 04:57:08;;;;;;;18.73;9.98;;;13.80;75.50;;;;;;4974690;28;20130;-89
2023/04/26 04:59:37;;;;;;;15.25;8.88;;;13.80;74.40;;;;;;4969983;28;20043;-91
2023/04/26 05:02:05;;;;;;;21.73;9.45;;;13.90;75.60;;;;;;4967012;28;20046;-82
2023/04/26 05:04:37;;;;;;;22.70;8.48;;;14.00;75.60;;;;;;4949914;28;20492;-82
2023/04/26 05:07:06;;;;;;;21.83;8.82;;;14.10;74.70;;;;;;4954670;28;20141;-85
2023/04/26 05:09:35;;;;;;;25.65;10.40;;;14.20;73.80;;;;;;4955330;28;20050;-85
2023/04/26 05:12:07;;;;;;;37.72;9.63;;;14.30;73.30;;;;;;4967593;28;20538;-84
2023/04/26 05:14:35;;;;;;;20.23;9.23;;;14.40;73.50;;;;;;4954286;28;20051;-88
2023/04/26 05:17:04;;;;;;;24.90;8.95;;;14.60;72.70;;;;;;4970376;28;20438;-86
2023/04/26 05:19:32;;;;;;;21.02;9.45;;;14.70;73.10;;;;;;4955384;28;20149;-83
2023/04/26 05:22:04;;;;;;;17.60;9.68;;;14.80;72.60;;;;;;4978506;28;20177;-83
2023/04/26 05:24:35;;;;;;;23.77;10.55;;;15.10;71.60;;;;;;4992444;28;20149;-84
2023/04/26 05:27:04;;;;;;;23.10;11.02;;;15.50;71.20;;;;;;4976820;28;20050;-84
2023/04/26 05:29:44;;;;;;;20.40;10.07;;;15.80;70.50;;;;;;4954331;28;20046;-87
2023/04/26 05:32:41;;;;;;;25.02;10.77;;;16.20;69.30;;;;;;4955518;29;20051;-88
2023/04/26 05:35:17;;;;;;;27.45;10.27;;;16.70;68.30;;;;;;4955586;28;20047;-86
2023/04/26 05:37:47;;;;;;;20.50;9.85;;;;;;;;;;4954069;29;20144;-87
2023/04/26 05:40:15;;;;;;;28.30;10.00;;;17.60;64.90;;;;;;4964020;28;20051;-86
2023/04/26 05:42:43;;;;;;;27.88;11.18;;;18.00;64.80;;;;;;4937846;29;20141;-86
2023/04/26 05:45:12;;;;;;;28.20;9.85;;;18.40;63.00;;;;;;4954983;29;20055;-86
2023/04/26 05:47:40;;;;;;;21.05;10.07;;;18.40;62.80;;;;;;4957813;28;20039;-86
2023/04/26 05:50:10;;;;;;;23.85;10.68;;;18.60;62.90;;;;;;4954365;28;20058;-87
2023/04/26 05:52:38;;;;;;;59.88;14.13;;;18.80;62.40;;;;;;4954102;29;20063;-88
2023/04/26 05:55:08;;;;;;;33.80;12.77;;;18.90;62.30;;;;;;4963834;28;20493;-86
2023/04/26 05:57:36;;;;;;;34.72;10.25;;;19.20;61.30;;;;;;4949441;28;20075;-87
2023/04/26 06:00:09;;;;;;;23.67;9.75;;;19.30;61.60;;;;;;4940773;28;20050;-87
2023/04/26 06:02:45;;;;;;;21.45;9.43;;;19.80;60.40;;;;;;4953957;29;20047;-87
2023/04/26 06:05:18;;;;;;;22.60;9.40;;;20.30;59.50;;;;;;4961959;28;20094;-87
2023/04/26 06:07:46;;;;;;;22.85;10.20;;;20.70;58.90;;;;;;4966830;28;20047;-86
2023/04/26 06:10:16;;;;;;;23.08;10.05;;;21.00;58.10;;;;;;4955912;28;20094;-88
2023/04/26 06:12:44;;;;;;;31.52;10.27;;;21.20;57.70;;;;;;4987311;28;20488;-87
2023/04/26 06:15:13;;;;;;;28.90;10.25;;;21.50;57.40;;;;;;4970074;28;20051;-84
2023/04/26 06:17:41;;;;;;;21.02;9.73;;;21.80;56.60;;;;;;4970918;28;20054;-83
2023/04/26 06:20:11;;;;;;;25.52;10.60;;;22.30;55.80;;;;;;4981932;28;20394;-82
2023/04/26 06:22:38;;;;;;;25.67;9.93;;;22.80;54.80;;;;;;4973428;28;20062;-85
2023/04/26 06:25:08;;;;;;;28.10;10.15;;;23.10;53.90;;;;;;4985120;28;20070;-85
2023/04/26 06:27:39;;;;;;;25.58;9.65;;;23.20;53.60;;;;;;4970725;28;20043;-83
2023/04/26 06:30:09;;;;;;;26.80;10.52;;;23.30;53.20;;;;;;4967756;28;20507;-83
2023/04/26 06:32:41;;;;;;;25.63;9.25;;;23.40;52.80;;;;;;4985493;28;20046;-82
2023/04/26 06:35:10;;;;;;;17.38;9.68;;;23.70;52.50;;;;;;4970777;28;20056;-81
2023/04/26 06:37:38;;;;;;;19.80;9.02;;;23.90;52.60;;;;;;4969809;28;20053;-84
2023/04/26 06:40:09;;;;;;;25.77;10.00;;;24.10;51.80;;;;;;4971833;28;20046;-84
2023/04/26 06:42:41;;;;;;;19.10;8.95;;;24.20;51.50;;;;;;4974426;28;20043;-82
2023/04/26 06:45:32;;;;;;;18.15;8.38;;;24.20;51.20;;;;;;4962663;28;20046;-83
2023/04/26 06:48:03;;;;;;;18.83;7.57;;;24.00;51.60;;;;;;4967303;28;20129;-83
2023/04/26 06:50:31;;;;;;;15.02;7.68;;;24.10;51.10;;;;;;4965028;28;20042;-84
2023/04/26 06:52:58;;;;;;;17.55;8.60;;;24.20;51.40;;;;;;4967223;28;20530;-83
2023/04/26 06:55:26;;;;;;;16.42;7.57;;;24.40;51.60;;;;;;4969179;28;20283;-84
2023/04/26 06:57:57;;;;;;;15.32;7.30;;;24.70;50.10;;;;;;4968227;28;20503;-83
2023/04/26 07:00:25;;;;;;;23.33;8.48;;;25.10;50.00;;;;;;4969083;28;20062;-82
2023/04/26 07:02:52;;;;;;;16.50;6.93;;;25.50;49.80;;;;;;4971211;28;20046;-82
2023/04/26 07:05:20;;;;;;;15.13;6.65;;;25.80;48.90;;;;;;4970549;28;20521;-82
2023/04/26 07:07:48;;;;;;;21.98;6.50;;;26.10;48.80;;;;;;4967781;28;20418;-82
2023/04/26 07:10:19;;;;;;;11.88;5.28;;;26.50;47.40;;;;;;4953139;28;20088;-82
2023/04/26 07:13:09;;;;;;;10.38;5.40;;;26.80;46.30;;;;;;4951544;29;20523;-81
2023/04/26 07:15:37;;;;;;;11.85;5.53;;;27.10;47.20;;;;;;4961339;28;20237;-82
2023/04/26 07:18:05;;;;;;;9.90;4.88;;;27.30;46.30;;;;;;4958383;28;20051;-82
2023/04/26 07:20:32;;;;;;;15.52;5.32;;;27.60;44.50;;;;;;4969038;28;20054;-83
2023/04/26 07:23:00;;;;;;;13.85;4.53;;;27.80;44.90;;;;;;4981049;28;20054;-84
2023/04/26 07:25:27;;;;;;;11.45;4.72;;;27.90;44.10;;;;;;4983445;28;20042;-83
2023/04/26 07:27:55;;;;;;;11.52;5.10;;;28.10;43.10;;;;;;4978687;28;20058;-82
2023/04/26 07:30:25;;;;;;;6.90;4.75;;;28.20;42.80;;;;;;4971864;28;20066;-82
2023/04/26 07:32:53;;;;;;;8.70;5.15;;;28.40;42.60;;;;;;4970538;28;20137;-83
2023/04/26 07:35:22;;;;;;;11.57;4.72;;;28.60;42.60;;;;;;4959482;28;20038;-83
2023/04/26 07:37:53;;;;;;;11.35;4.40;;;28.90;43.90;;;;;;4978935;28;20478;-82
2023/04/26 07:40:23;;;;;;;11.48;4.40;;;29.10;42.90;;;;;;4978921;28;20489;-82
2023/04/26 07:42:51;;;;;;;12.90;5.15;;;29.40;42.50;;;;;;4983225;28;20069;-82
2023/04/26 07:45:19;;;;;;;14.45;5.30;;;29.50;41.70;;;;;;4981443;28;20051;-82
2023/04/26 07:47:48;;;;;;;7.07;5.07;;;29.60;41.40;;;;;;4975799;28;20046;-84
2023/04/26 07:50:16;;;;;;;14.98;5.10;;;29.50;41.50;;;;;;4982124;28;20069;-81
2023/04/26 07:52:44;;;;;;;10.05;5.28;;;29.60;42.40;;;;;;4975471;28;20078;-81
2023/04/26 07:55:11;;;;;;;19.23;5.68;;;29.90;41.60;;;;;;4960013;28;20058;-83
2023/04/26 07:57:39;;;;;;;9.60;4.82;;;30.20;42.20;;;;;;4980352;28;20069;-84
2023/04/26 08:00:09;;;;;;;27.45;6.60;;;30.80;40.30;;;;;;4976515;28;20050;-84
2023/04/26 08:02:40;;;;;;;45.85;7.18;;;31.10;41.50;;;;;;4972187;28;20419;-83
2023/04/26 08:05:09;;;;;;;19.65;5.75;;;31.20;41.80;;;;;;4975915;28;20062;-84
2023/04/26 08:07:37;;;;;;;17.20;4.50;;;31.20;41.00;;;;;;4959602;28;20055;-84
2023/04/26 08:10:05;;;;;;;27.25;5.13;;;31.40;39.00;;;;;;4991581;28;20058;-83
2023/04/26 08:12:34;;;;;;;11.65;4.03;;;31.40;38.40;;;;;;4978109;28;20047;-84
2023/04/26 08:15:02;;;;;;;9.85;4.18;;;31.30;38.70;;;;;;4981108;28;20046;-84
2023/04/26 08:17:33;;;;;;;;;;;31.40;39.20;;;;;;4974214;28;20215;-84
2023/04/26 08:20:01;;;;;;;13.57;5.25;;;31.50;39.40;;;;;;4975172;28;19925;-83
2023/04/26 08:22:30;;;;;;;12.55;4.93;;;31.60;38.90;;;;;;4973557;28;20511;-84
2023/04/26 08:24:57;;;;;;;9.75;4.43;;;31.90;38.10;;;;;;4976448;28;20133;-84
2023/04/26 08:27:25;;;;;;;15.43;3.45;;;31.70;38.20;;;;;;4976817;28;20515;-80
2023/04/26 08:29:52;;;;;;;7.03;3.22;;;31.90;36.90;;;;;;4975081;28;20059;-82
2023/04/26 08:32:20;;;;;;;8.55;3.30;;;32.00;36.90;;;;;;4967818;28;20072;-79
2023/04/26 08:34:51;;;;;;;;;;;32.20;36.40;;;;;;4956573;28;20520;-81
2023/04/26 08:37:19;;;;;;;6.60;3.63;;;32.40;36.20;;;;;;4982740;28;19989;-81
2023/04/26 08:39:48;;;;;;;8.20;3.05;;;32.30;36.40;;;;;;4974897;28;20039;-82
2023/04/26 08:42:17;;;;;;;7.18;3.42;;;32.10;35.90;;;;;;4955750;29;20062;-81
2023/04/26 08:44:46;;;;;;;8.35;3.05;;;31.70;36.00;;;;;;4972121;28;20532;-81
2023/04/26 08:47:18;;;;;;;9.10;3.10;;;31.30;36.90;;;;;;4970748;28;20121;-82
2023/04/26 08:49:49;;;;;;;9.55;3.47;;;31.50;36.90;;;;;;4965377;28;20507;-82
2023/04/26 08:52:21;;;;;;;9.00;3.10;;;31.70;36.10;;;;;;4972806;28;20043;-82
2023/04/26 08:54:52;;;;;;;4.20;2.85;;;32.00;36.00;;;;;;4968828;28;20047;-81
2023/04/26 08:57:20;;;;;;;9.32;3.22;;;32.10;35.30;;;;;;4958695;28;20057;-82
2023/04/26 08:59:48;;;;;;;4.40;3.03;;;31.90;35.70;;;;;;4962945;28;20149;-81
2023/04/26 09:02:19;;;;;;;6.38;3.00;;;31.80;35.40;;;;;;4971824;28;20050;-81
2023/04/26 09:04:49;;;;;;;10.75;2.78;;;31.90;35.30;;;;;;4973277;28;20105;-81
2023/04/26 09:07:32;;;;;;;5.55;2.70;;;31.80;35.30;;;;;;4967576;28;20659;-81
2023/04/26 09:10:05;;;;;;;5.78;2.60;;;31.80;35.50;;;;;;4971775;28;20058;-80
2023/04/26 09:12:35;;;;;;;11.00;3.10;;;32.00;35.50;;;;;;4975348;28;20133;-83
2023/04/26 09:15:06;;;;;;;3.53;2.45;;;32.10;36.30;;;;;;4974689;28;20051;-87
2023/04/26 09:17:37;;;;;;;4.43;2.47;;;32.60;35.00;;;;;;4984295;28;20047;-82
2023/04/26 09:20:28;;;;;;;5.28;2.67;;;33.00;34.40;;;;;;4972757;28;20046;-85
2023/04/26 09:23:06;;;;;;;6.15;2.75;;;33.30;33.90;;;;;;4969571;28;20051;-83
2023/04/26 09:25:37;;;;;;;7.78;3.40;;;33.00;34.00;;;;;;4969630;28;20074;-84
2023/04/26 09:28:19;;;;;;;7.75;3.13;;;33.20;34.30;;;;;;4972332;28;20047;-85
2023/04/26 09:30:48;;;;;;;4.90;2.40;;;33.40;34.00;;;;;;4971017;28;20050;-84
2023/04/26 09:33:15;;;;;;;10.65;2.90;;;33.50;34.20;;;;;;4970927;28;20101;-85
2023/04/26 09:35:44;;;;;;;8.52;2.83;;;34.10;33.70;;;;;;4971350;28;20095;-83
2023/04/26 09:38:14;;;;;;;8.25;2.85;;;34.40;34.20;;;;;;4980489;28;20098;-83
2023/04/26 09:40:46;;;;;;;6.82;3.05;;;34.90;33.40;;;;;;4971212;28;20094;-81
2023/04/26 09:43:15;;;;;;;;;;;35.10;32.50;;;;;;4972494;28;20402;-82
2023/04/26 09:45:49;;;;;;;7.95;2.90;;;35.00;32.50;;;;;;4969710;28;20367;-83
2023/04/26 09:48:22;;;;;;;12.60;3.15;;;34.90;33.10;;;;;;4975921;28;20034;-83
2023/04/26 09:50:52;;;;;;;6.63;3.38;;;35.00;32.90;;;;;;4973382;28;20519;-85
2023/04/26 09:53:29;;;;;;;6.25;3.30;;;35.10;32.30;;;;;;4970162;28;20153;-85
2023/04/26 09:56:08;;;;;;;7.03;3.90;;;35.10;32.40;;;;;;4973153;28;20046;-88
2023/04/26 09:58:38;;;;;;;8.95;3.53;;;35.10;32.80;;;;;;4973451;28;20043;-86
2023/04/26 10:01:12;;;;;;;17.05;4.07;;;35.20;33.70;;;;;;4971795;28;20078;-84
2023/04/26 10:03:41;;;;;;;7.68;3.92;;;35.40;32.70;;;;;;4973495;28;20507;-84
2023/04/26 10:06:09;;;;;;;12.50;3.70;;;35.70;31.60;;;;;;4969531;28;20046;-83
2023/04/26 10:08:40;;;;;;;6.13;4.05;;;36.20;31.80;;;;;;4970964;28;20464;-85
2023/04/26 10:11:11;;;;;;;10.80;3.15;;;36.70;30.90;;;;;;4973417;28;20101;-83
2023/04/26 10:13:41;;;;;;;5.72;3.60;;;36.90;30.70;;;;;;4973862;28;20105;-89
2023/04/26 10:16:11;;;;;;;5.25;3.10;;;36.90;30.60;;;;;;4954950;28;20396;-85
2023/04/26 10:18:48;;;;;;;9.68;3.40;;;37.00;30.40;;;;;;4972953;28;20507;-83
2023/04/26 10:21:22;;;;;;;8.73;3.42;;;37.50;30.30;;;;;;4986807;28;20149;-85
2023/04/26 10:23:50;;;;;;;6.72;3.13;;;37.30;30.30;;;;;;4972434;28;20058;-84
2023/04/26 10:26:52;;;;;;;5.22;3.05;;;36.60;30.00;;;;;;4970803;28;20058;-85
2023/04/26 10:29:21;;;;;;;2.90;2.65;;;36.30;29.70;;;;;;4963845;28;20047;-80
2023/04/26 10:32:15;;;;;;;4.80;2.65;;;35.70;29.90;;;;;;4971308;28;20051;-80
2023/04/26 10:34:43;;;;;;;10.77;3.63;;;33.40;30.80;;;;;;4984435;28;20053;-80
2023/04/26 10:37:13;;;;;;;6.10;3.17;;;31.50;32.80;;;;;;4978897;28;20169;-82
2023/04/26 10:39:59;;;;;;;;;;;;;;;;;;;;;
2023/04/26 10:43:31;;;;;;;6.60;3.08;;;28.60;35.50;;;;;;4969984;28;20058;-79
2023/04/26 10:46:39;;;;;;;4.53;2.92;;;27.60;36.90;;;;;;4963849;28;20428;-81
2023/04/26 10:49:21;;;;;;;8.38;3.05;;;28.10;37.30;;;;;;4966915;28;20108;-79
2023/04/26 10:52:12;;;;;;;6.90;3.47;;;27.70;37.50;;;;;;4991382;28;20458;-80
2023/04/26 10:54:48;;;;;;;6.43;3.22;;;27.30;38.00;;;;;;4954840;28;20153;-79
2023/04/26 10:57:16;;;;;;;8.27;3.47;;;26.70;38.30;;;;;;4957570;28;20051;-81
2023/04/26 11:00:27;;;;;;;5.57;2.90;;;26.30;38.40;;;;;;4972293;28;20113;-79
2023/04/26 11:02:58;;;;;;;8.90;3.38;;;25.80;38.80;;;;;;4971529;28;20063;-79
2023/04/26 11:05:54;;;;;;;6.43;3.47;;;25.40;39.50;;;;;;4965923;28;20455;-79
2023/04/26 11:08:26;;;;;;;8.13;3.53;;;25.20;39.80;;;;;;4962706;28;20652;-79
2023/04/26 11:11:11;;;;;;;6.88;3.22;;;24.90;40.30;;;;;;4965837;28;20054;-79
2023/04/26 11:13:40;;;;;;;8.05;4.05;;;24.80;41.20;;;;;;4969101;28;20430;-80
2023/04/26 11:16:11;;;;;;;6.90;3.80;;;24.60;41.60;;;;;;4974421;28;20050;-80
2023/04/26 11:18:41;;;;;;;8.55;3.47;;;24.60;42.60;;;;;;4970848;28;20719;-81
2023/04/26 11:21:11;;;;;;;8.15;5.10;;;24.50;41.60;;;;;;4966495;28;20055;-79
2023/04/26 11:23:40;;;;;;;4.68;3.47;;;24.30;42.40;;;;;;4965671;28;20051;-79
2023/04/26 11:26:08;;;;;;;9.75;3.90;;;24.20;42.40;;;;;;4965852;28;20097;-78
2023/04/26 11:28:38;;;;;;;9.40;3.78;;;24.20;42.20;;;;;;4971024;28;20138;-78
2023/04/26 11:31:07;;;;;;;20.25;3.47;;;24.10;42.20;;;;;;4969402;28;20055;-78
2023/04/26 11:33:35;;;;;;;21.00;3.90;;;24.00;41.70;;;;;;4982571;28;20049;-76
2023/04/26 11:36:04;;;;;;;17.90;3.90;;;23.70;42.70;;;;;;4967920;28;20096;-77
2023/04/26 11:38:32;;;;;;;15.30;4.60;;;23.70;42.90;;;;;;4969283;28;20065;-77
2023/04/26 11:41:01;;;;;;;12.35;4.18;;;23.80;42.60;;;;;;4968749;28;20078;-78
2023/04/26 11:43:36;;;;;;;12.57;3.83;;;23.80;42.50;;;;;;4968693;28;20055;-77
2023/04/26 11:46:05;;;;;;;11.88;3.38;;;23.90;42.70;;;;;;4967277;28;20062;-78
2023/04/26 11:48:36;;;;;;;10.35;3.00;;;24.10;42.50;;;;;;4967546;28;20052;-81
2023/04/26 11:51:05;;;;;;;7.68;3.25;;;24.20;42.30;;;;;;4971902;28;20053;-80
2023/04/26 11:53:37;;;;;;;5.57;2.90;;;24.20;42.30;;;;;;4976122;28;20069;-78
2023/04/26 11:56:17;;;;;;;5.95;3.40;;;24.10;42.30;;;;;;4969298;28;20057;-78
2023/04/26 11:58:46;;;;;;;13.40;3.22;;;24.00;42.80;;;;;;4983951;28;20050;-80
2023/04/26 12:01:22;;;;;;;7.18;3.00;;;24.00;42.50;;;;;;4952602;28;20510;-80
2023/04/26 12:03:53;;;;;;;9.40;3.38;;;24.10;42.30;;;;;;4969226;28;20499;-80
2023/04/26 12:06:26;;;;;;;10.27;3.60;;;24.10;42.10;;;;;;4966973;28;20047;-79
2023/04/26 12:08:53;;;;;;;7.22;3.30;;;24.10;42.30;;;;;;4950204;28;20047;-78
2023/04/26 12:11:21;;;;;;;5.82;3.00;;;24.20;42.80;;;;;;4966806;28;20051;-79
2023/04/26 12:13:49;;;;;;;9.55;4.38;;;24.40;42.40;;;;;;4969600;28;20149;-81
2023/04/26 12:16:16;;;;;;;8.10;3.10;;;24.40;42.50;;;;;;4951111;28;20054;-76
2023/04/26 12:18:53;;;;;;;8.48;3.08;;;24.40;42.10;;;;;;4964029;28;20130;-74
2023/04/26 12:21:21;;;;;;;7.45;3.20;;;24.50;42.40;;;;;;4970412;28;20047;-74
2023/04/26 12:23:49;;;;;;;11.30;3.30;;;24.50;41.90;;;;;;4971795;28;20070;-77
2023/04/26 12:26:17;;;;;;;8.15;2.42;;;24.50;41.90;;;;;;4967904;28;20047;-75
2023/04/26 12:28:44;;;;;;;8.82;3.15;;;24.60;42.00;;;;;;4962066;28;20137;-75
2023/04/26 12:31:12;;;;;;;8.07;3.10;;;24.70;42.20;;;;;;4958509;28;20059;-74
2023/04/26 12:33:39;;;;;;;6.88;2.95;;;24.90;42.10;;;;;;4952758;29;20079;-73
2023/04/26 12:36:10;;;;;;;7.22;3.47;;;25.10;41.50;;;;;;4966697;28;20459;-74
2023/04/26 12:38:38;;;;;;;8.45;2.92;;;25.30;41.40;;;;;;4979868;28;20507;-74
2023/04/26 12:41:06;;;;;;;8.35;3.03;;;25.50;41.80;;;;;;4984245;28;20050;-75
2023/04/26 12:43:33;;;;;;;6.03;2.78;;;25.70;41.20;;;;;;4966762;28;20504;-75
2023/04/26 12:46:01;;;;;;;9.93;3.63;;;26.00;41.10;;;;;;4966720;28;20054;-77
2023/04/26 12:48:29;;;;;;;4.40;3.00;;;26.60;41.20;;;;;;4969030;28;20059;-77
2023/04/26 12:50:59;;;;;;;5.80;3.00;;;28.40;39.90;;;;;;4963563;28;20146;-78
2023/04/26 12:53:28;;;;;;;8.20;3.35;;;30.40;37.50;;;;;;4962706;28;20054;-75
2023/04/26 12:55:57;;;;;;;8.07;3.20;;;32.10;35.90;;;;;;4966794;28;20392;-76
2023/04/26 12:58:25;;;;;;;11.68;3.33;;;33.40;34.10;;;;;;4974123;28;20046;-74